sensor_id;sensor_type;location;lat;lon;timestamp;temperature;humidity
70244;DHT22;57634;51.136;17.024;2022-08-19T00:02:00;26.00;54.40
70244;DHT22;57634;51.136;17.024;2022-08-19T00:05:03;26.00;54.60
70244;DHT22;57634;51.136;17.024;2022-08-19T00:08:05;26.00;54.70
70244;DHT22;57634;51.136;17.024;2022-08-19T00:11:33;25.90;54.70
70244;DHT22;57634;51.136;17.024;2022-08-19T00:14:38;25.90;55.00
70244;DHT22;57634;51.136;17.024;2022-08-19T00:17:43;25.80;55.10
70244;DHT22;57634;51.136;17.024;2022-08-19T00:20:45;25.80;55.20
70244;DHT22;57634;51.136;17.024;2022-08-19T00:23:47;25.70;55.20
70244;DHT22;57634;51.136;17.024;2022-08-19T00:26:48;25.70;55.30
70244;DHT22;57634;51.136;17.024;2022-08-19T00:29:50;25.60;55.40
70244;DHT22;57634;51.136;17.024;2022-08-19T00:32:52;25.60;55.60
70244;DHT22;57634;51.136;17.024;2022-08-19T00:35:56;25.50;55.60
70244;DHT22;57634;51.136;17.024;2022-08-19T00:38:57;25.50;55.80
70244;DHT22;57634;51.136;17.024;2022-08-19T00:41:59;25.40;55.90
70244;DHT22;57634;51.136;17.024;2022-08-19T00:45:29;25.30;55.90
70244;DHT22;57634;51.136;17.024;2022-08-19T00:48:37;25.30;56.20
70244;DHT22;57634;51.136;17.024;2022-08-19T00:51:38;25.30;56.20
70244;DHT22;57634;51.136;17.024;2022-08-19T00:54:41;25.30;56.30
70244;DHT22;57634;51.136;17.024;2022-08-19T00:57:48;25.30;56.40
70244;DHT22;57634;51.136;17.024;2022-08-19T01:00:51;25.30;56.40
70244;DHT22;57634;51.136;17.024;2022-08-19T01:03:53;25.30;56.40
70244;DHT22;57634;51.136;17.024;2022-08-19T01:06:55;25.30;56.40
70244;DHT22;57634;51.136;17.024;2022-08-19T01:09:57;25.30;56.60
70244;DHT22;57634;51.136;17.024;2022-08-19T01:12:59;25.20;56.70
70244;DHT22;57634;51.136;17.024;2022-08-19T01:16:28;25.20;57.10
70244;DHT22;57634;51.136;17.024;2022-08-19T01:19:35;25.00;57.60
70244;DHT22;57634;51.136;17.024;2022-08-19T01:25:52;24.90;58.10
70244;DHT22;57634;51.136;17.024;2022-08-19T01:28:58;24.80;58.20
70244;DHT22;57634;51.136;17.024;2022-08-19T01:32:02;24.70;58.30
70244;DHT22;57634;51.136;17.024;2022-08-19T01:35:04;24.70;58.30
70244;DHT22;57634;51.136;17.024;2022-08-19T01:38:08;24.70;58.30
70244;DHT22;57634;51.136;17.024;2022-08-19T01:41:37;24.70;58.50
70244;DHT22;57634;51.136;17.024;2022-08-19T01:44:39;24.60;58.80
70244;DHT22;57634;51.136;17.024;2022-08-19T01:47:42;24.60;59.00
70244;DHT22;57634;51.136;17.024;2022-08-19T01:50:43;24.50;59.20
70244;DHT22;57634;51.136;17.024;2022-08-19T01:53:48;24.50;59.40
70244;DHT22;57634;51.136;17.024;2022-08-19T01:57:00;24.40;59.50
70244;DHT22;57634;51.136;17.024;2022-08-19T02:00:01;24.50;59.60
70244;DHT22;57634;51.136;17.024;2022-08-19T02:03:06;24.40;59.60
70244;DHT22;57634;51.136;17.024;2022-08-19T02:06:09;24.50;59.70
70244;DHT22;57634;51.136;17.024;2022-08-19T02:09:39;24.40;59.70
70244;DHT22;57634;51.136;17.024;2022-08-19T02:12:41;24.40;59.80
70244;DHT22;57634;51.136;17.024;2022-08-19T02:15:43;24.40;59.90
70244;DHT22;57634;51.136;17.024;2022-08-19T02:18:45;24.30;59.90
70244;DHT22;57634;51.136;17.024;2022-08-19T02:21:49;24.30;60.00
70244;DHT22;57634;51.136;17.024;2022-08-19T02:24:51;24.30;60.00
70244;DHT22;57634;51.136;17.024;2022-08-19T02:27:53;24.30;60.10
70244;DHT22;57634;51.136;17.024;2022-08-19T02:30:54;24.20;60.20
70244;DHT22;57634;51.136;17.024;2022-08-19T02:33:56;24.20;60.40
70244;DHT22;57634;51.136;17.024;2022-08-19T02:36:58;24.20;60.50
70244;DHT22;57634;51.136;17.024;2022-08-19T02:39:59;24.10;60.60
70244;DHT22;57634;51.136;17.024;2022-08-19T02:43:04;24.00;60.70
70244;DHT22;57634;51.136;17.024;2022-08-19T02:46:34;24.00;60.90
70244;DHT22;57634;51.136;17.024;2022-08-19T02:49:36;23.90;61.30
70244;DHT22;57634;51.136;17.024;2022-08-19T02:52:38;23.90;61.50
70244;DHT22;57634;51.136;17.024;2022-08-19T02:55:45;23.90;61.70
70244;DHT22;57634;51.136;17.024;2022-08-19T02:58:47;23.80;61.80
70244;DHT22;57634;51.136;17.024;2022-08-19T03:01:49;23.80;61.80
70244;DHT22;57634;51.136;17.024;2022-08-19T03:04:51;23.80;61.90
70244;DHT22;57634;51.136;17.024;2022-08-19T03:07:52;23.80;62.00
70244;DHT22;57634;51.136;17.024;2022-08-19T03:10:53;23.70;62.10
70244;DHT22;57634;51.136;17.024;2022-08-19T03:13:56;23.70;62.30
70244;DHT22;57634;51.136;17.024;2022-08-19T03:16:58;23.70;62.50
70244;DHT22;57634;51.136;17.024;2022-08-19T03:19:59;23.60;62.50
70244;DHT22;57634;51.136;17.024;2022-08-19T03:23:27;23.60;62.50
70244;DHT22;57634;51.136;17.024;2022-08-19T03:26:30;23.60;62.70
70244;DHT22;57634;51.136;17.024;2022-08-19T03:29:31;23.60;62.80
70244;DHT22;57634;51.136;17.024;2022-08-19T03:32:33;23.60;62.90
70244;DHT22;57634;51.136;17.024;2022-08-19T03:35:35;23.60;63.00
70244;DHT22;57634;51.136;17.024;2022-08-19T03:38:46;23.60;63.00
70244;DHT22;57634;51.136;17.024;2022-08-19T03:41:50;23.60;63.00
70244;DHT22;57634;51.136;17.024;2022-08-19T03:44:52;23.60;63.00
70244;DHT22;57634;51.136;17.024;2022-08-19T03:47:54;23.60;63.10
70244;DHT22;57634;51.136;17.024;2022-08-19T03:50:57;23.60;63.10
70244;DHT22;57634;51.136;17.024;2022-08-19T03:54:27;23.60;63.10
70244;DHT22;57634;51.136;17.024;2022-08-19T03:57:28;23.60;63.30
70244;DHT22;57634;51.136;17.024;2022-08-19T04:00:30;23.60;63.40
70244;DHT22;57634;51.136;17.024;2022-08-19T04:03:31;23.60;63.50
70244;DHT22;57634;51.136;17.024;2022-08-19T04:06:34;23.60;63.50
70244;DHT22;57634;51.136;17.024;2022-08-19T04:09:36;23.70;63.50
70244;DHT22;57634;51.136;17.024;2022-08-19T04:12:38;23.70;63.40
70244;DHT22;57634;51.136;17.024;2022-08-19T04:15:42;23.80;63.40
70244;DHT22;57634;51.136;17.024;2022-08-19T04:18:44;23.90;63.10
70244;DHT22;57634;51.136;17.024;2022-08-19T04:21:51;24.00;62.90
70244;DHT22;57634;51.136;17.024;2022-08-19T04:24:53;24.20;62.70
70244;DHT22;57634;51.136;17.024;2022-08-19T04:27:54;24.40;62.20
70244;DHT22;57634;51.136;17.024;2022-08-19T04:31:24;24.60;61.80
70244;DHT22;57634;51.136;17.024;2022-08-19T04:34:29;24.80;61.30
70244;DHT22;57634;51.136;17.024;2022-08-19T04:37:31;25.00;60.70
70244;DHT22;57634;51.136;17.024;2022-08-19T04:40:40;25.20;60.00
70244;DHT22;57634;51.136;17.024;2022-08-19T04:43:54;25.50;59.50
70244;DHT22;57634;51.136;17.024;2022-08-19T04:46:56;25.80;59.00
70244;DHT22;57634;51.136;17.024;2022-08-19T04:49:58;26.20;58.10
70244;DHT22;57634;51.136;17.024;2022-08-19T04:53:00;26.40;57.30
70244;DHT22;57634;51.136;17.024;2022-08-19T04:56:27;26.70;56.70
70244;DHT22;57634;51.136;17.024;2022-08-19T04:59:28;27.00;55.80
70244;DHT22;57634;51.136;17.024;2022-08-19T05:02:29;27.20;55.30
70244;DHT22;57634;51.136;17.024;2022-08-19T05:05:31;27.40;54.60
70244;DHT22;57634;51.136;17.024;2022-08-19T05:08:34;27.30;54.10
70244;DHT22;57634;51.136;17.024;2022-08-19T05:11:37;27.20;54.50
70244;DHT22;57634;51.136;17.024;2022-08-19T05:14:40;27.30;54.40
70244;DHT22;57634;51.136;17.024;2022-08-19T05:17:41;27.50;54.20
70244;DHT22;57634;51.136;17.024;2022-08-19T05:20:54;27.70;53.70
70244;DHT22;57634;51.136;17.024;2022-08-19T05:24:36;27.60;53.20
70244;DHT22;57634;51.136;17.024;2022-08-19T05:27:38;27.60;53.50
70244;DHT22;57634;51.136;17.024;2022-08-19T05:30:40;27.80;53.20
70244;DHT22;57634;51.136;17.024;2022-08-19T05:33:41;27.80;52.90
70244;DHT22;57634;51.136;17.024;2022-08-19T05:36:44;27.90;52.90
70244;DHT22;57634;51.136;17.024;2022-08-19T05:39:46;28.10;52.50
70244;DHT22;57634;51.136;17.024;2022-08-19T05:42:47;28.30;52.00
70244;DHT22;57634;51.136;17.024;2022-08-19T05:45:50;28.30;51.70
70244;DHT22;57634;51.136;17.024;2022-08-19T05:48:52;28.50;51.80
70244;DHT22;57634;51.136;17.024;2022-08-19T05:51:57;28.90;51.40
70244;DHT22;57634;51.136;17.024;2022-08-19T05:55:00;29.30;50.50
70244;DHT22;57634;51.136;17.024;2022-08-19T05:58:01;29.90;49.40
70244;DHT22;57634;51.136;17.024;2022-08-19T06:01:29;30.70;48.20
70244;DHT22;57634;51.136;17.024;2022-08-19T06:04:31;31.40;46.40
70244;DHT22;57634;51.136;17.024;2022-08-19T06:07:32;32.00;44.90
70244;DHT22;57634;51.136;17.024;2022-08-19T06:10:34;32.40;43.70
70244;DHT22;57634;51.136;17.024;2022-08-19T06:13:37;32.50;43.20
70244;DHT22;57634;51.136;17.024;2022-08-19T06:16:41;32.70;42.60
70244;DHT22;57634;51.136;17.024;2022-08-19T06:19:42;32.80;42.50
70244;DHT22;57634;51.136;17.024;2022-08-19T06:22:47;33.20;42.10
70244;DHT22;57634;51.136;17.024;2022-08-19T06:25:51;33.90;41.20
70244;DHT22;57634;51.136;17.024;2022-08-19T06:28:53;34.80;40.10
70244;DHT22;57634;51.136;17.024;2022-08-19T06:31:57;35.50;38.80
70244;DHT22;57634;51.136;17.024;2022-08-19T06:35:25;36.40;37.50
70244;DHT22;57634;51.136;17.024;2022-08-19T06:38:27;37.80;35.30
70244;DHT22;57634;51.136;17.024;2022-08-19T06:41:30;38.60;33.20
70244;DHT22;57634;51.136;17.024;2022-08-19T06:44:34;39.00;32.10
70244;DHT22;57634;51.136;17.024;2022-08-19T06:47:37;39.20;31.50
70244;DHT22;57634;51.136;17.024;2022-08-19T06:50:38;39.40;31.10
70244;DHT22;57634;51.136;17.024;2022-08-19T06:53:39;39.90;30.70
70244;DHT22;57634;51.136;17.024;2022-08-19T06:56:41;40.50;30.00
70244;DHT22;57634;51.136;17.024;2022-08-19T06:59:46;41.10;29.40
70244;DHT22;57634;51.136;17.024;2022-08-19T07:02:47;41.90;28.60
70244;DHT22;57634;51.136;17.024;2022-08-19T07:05:50;42.40;27.60
70244;DHT22;57634;51.136;17.024;2022-08-19T07:08:51;42.30;27.20
70244;DHT22;57634;51.136;17.024;2022-08-19T07:12:18;41.80;27.20
70244;DHT22;57634;51.136;17.024;2022-08-19T07:15:19;41.90;27.30
70244;DHT22;57634;51.136;17.024;2022-08-19T07:18:22;42.80;26.60
70244;DHT22;57634;51.136;17.024;2022-08-19T07:21:26;43.90;25.70
70244;DHT22;57634;51.136;17.024;2022-08-19T07:24:32;44.90;24.90
70244;DHT22;57634;51.136;17.024;2022-08-19T07:27:34;45.40;24.10
70244;DHT22;57634;51.136;17.024;2022-08-19T07:30:36;44.90;23.60
70244;DHT22;57634;51.136;17.024;2022-08-19T07:33:39;43.80;24.20
70244;DHT22;57634;51.136;17.024;2022-08-19T07:36:44;43.40;24.90
70244;DHT22;57634;51.136;17.024;2022-08-19T07:39:47;43.80;25.00
70244;DHT22;57634;51.136;17.024;2022-08-19T07:42:48;44.40;24.60
70244;DHT22;57634;51.136;17.024;2022-08-19T07:46:17;45.20;24.10
70244;DHT22;57634;51.136;17.024;2022-08-19T07:49:20;45.90;23.10
70244;DHT22;57634;51.136;17.024;2022-08-19T07:52:22;46.40;22.60
70244;DHT22;57634;51.136;17.024;2022-08-19T07:55:25;47.00;22.30
70244;DHT22;57634;51.136;17.024;2022-08-19T07:58:27;47.20;21.80
70244;DHT22;57634;51.136;17.024;2022-08-19T08:01:28;47.20;21.60
70244;DHT22;57634;51.136;17.024;2022-08-19T08:04:31;46.60;21.60
70244;DHT22;57634;51.136;17.024;2022-08-19T08:07:44;46.00;22.00
70244;DHT22;57634;51.136;17.024;2022-08-19T08:11:24;45.20;22.30
70244;DHT22;57634;51.136;17.024;2022-08-19T08:14:36;44.10;22.90
70244;DHT22;57634;51.136;17.024;2022-08-19T08:17:39;43.10;23.50
70244;DHT22;57634;51.136;17.024;2022-08-19T08:20:41;42.00;24.00
70244;DHT22;57634;51.136;17.024;2022-08-19T08:23:43;41.00;24.90
70244;DHT22;57634;51.136;17.024;2022-08-19T08:26:44;40.50;25.70
70244;DHT22;57634;51.136;17.024;2022-08-19T08:29:46;40.50;25.90
70244;DHT22;57634;51.136;17.024;2022-08-19T08:32:51;40.80;26.00
70244;DHT22;57634;51.136;17.024;2022-08-19T08:35:52;41.50;25.60
70244;DHT22;57634;51.136;17.024;2022-08-19T08:38:54;42.40;24.90
70244;DHT22;57634;51.136;17.024;2022-08-19T08:42:28;42.70;24.30
70244;DHT22;57634;51.136;17.024;2022-08-19T08:45:35;42.20;24.10
70244;DHT22;57634;51.136;17.024;2022-08-19T08:48:44;41.60;24.40
70244;DHT22;57634;51.136;17.024;2022-08-19T08:51:54;41.60;25.10
70244;DHT22;57634;51.136;17.024;2022-08-19T08:55:05;42.40;25.10
70244;DHT22;57634;51.136;17.024;2022-08-19T08:58:14;43.50;24.30
70244;DHT22;57634;51.136;17.024;2022-08-19T09:01:43;44.70;23.40
70244;DHT22;57634;51.136;17.024;2022-08-19T09:04:46;46.00;22.20
70244;DHT22;57634;51.136;17.024;2022-08-19T09:11:09;47.70;20.90
70244;DHT22;57634;51.136;17.024;2022-08-19T09:17:29;48.80;20.00
70244;DHT22;57634;51.136;17.024;2022-08-19T09:21:00;49.20;19.70
70244;DHT22;57634;51.136;17.024;2022-08-19T09:24:02;49.50;19.20
70244;DHT22;57634;51.136;17.024;2022-08-19T09:27:05;49.70;19.00
70244;DHT22;57634;51.136;17.024;2022-08-19T09:30:09;49.80;18.60
70244;DHT22;57634;51.136;17.024;2022-08-19T09:33:11;49.70;18.50
70244;DHT22;57634;51.136;17.024;2022-08-19T09:36:19;49.70;18.60
70244;DHT22;57634;51.136;17.024;2022-08-19T09:39:23;49.80;18.50
70244;DHT22;57634;51.136;17.024;2022-08-19T09:42:24;50.00;18.40
70244;DHT22;57634;51.136;17.024;2022-08-19T09:45:26;49.80;18.40
70244;DHT22;57634;51.136;17.024;2022-08-19T09:48:28;48.80;18.50
70244;DHT22;57634;51.136;17.024;2022-08-19T09:51:30;47.50;19.20
70244;DHT22;57634;51.136;17.024;2022-08-19T09:54:58;46.70;20.00
70244;DHT22;57634;51.136;17.024;2022-08-19T09:58:01;45.80;20.40
70244;DHT22;57634;51.136;17.024;2022-08-19T10:01:04;44.30;21.10
70244;DHT22;57634;51.136;17.024;2022-08-19T10:04:06;42.80;22.20
70244;DHT22;57634;51.136;17.024;2022-08-19T10:07:11;41.80;23.10
70244;DHT22;57634;51.136;17.024;2022-08-19T10:10:12;40.70;24.20
70244;DHT22;57634;51.136;17.024;2022-08-19T10:13:16;40.00;25.10
70244;DHT22;57634;51.136;17.024;2022-08-19T10:16:21;39.20;25.70
70244;DHT22;57634;51.136;17.024;2022-08-19T10:19:23;38.70;26.50
70244;DHT22;57634;51.136;17.024;2022-08-19T10:22:26;38.40;26.80
70244;DHT22;57634;51.136;17.024;2022-08-19T10:25:27;38.20;27.10
70244;DHT22;57634;51.136;17.024;2022-08-19T10:28:55;38.10;27.10
70244;DHT22;57634;51.136;17.024;2022-08-19T10:31:57;37.90;27.20
70244;DHT22;57634;51.136;17.024;2022-08-19T10:35:02;37.70;27.40
70244;DHT22;57634;51.136;17.024;2022-08-19T10:38:09;37.60;27.40
70244;DHT22;57634;51.136;17.024;2022-08-19T10:41:22;37.50;27.60
70244;DHT22;57634;51.136;17.024;2022-08-19T10:44:24;37.40;27.80
70244;DHT22;57634;51.136;17.024;2022-08-19T10:47:26;37.50;27.80
70244;DHT22;57634;51.136;17.024;2022-08-19T10:50:28;37.70;27.80
70244;DHT22;57634;51.136;17.024;2022-08-19T10:54:07;37.80;27.70
70244;DHT22;57634;51.136;17.024;2022-08-19T10:57:08;38.00;27.70
70244;DHT22;57634;51.136;17.024;2022-08-19T11:00:10;38.00;27.40
70244;DHT22;57634;51.136;17.024;2022-08-19T11:03:12;37.90;27.50
70244;DHT22;57634;51.136;17.024;2022-08-19T11:06:13;37.80;27.80
70244;DHT22;57634;51.136;17.024;2022-08-19T11:09:23;37.80;27.90
70244;DHT22;57634;51.136;17.024;2022-08-19T11:12:31;37.90;27.70
70244;DHT22;57634;51.136;17.024;2022-08-19T11:15:34;38.00;27.50
70244;DHT22;57634;51.136;17.024;2022-08-19T11:18:42;38.10;27.30
70244;DHT22;57634;51.136;17.024;2022-08-19T11:22:10;38.20;27.10
70244;DHT22;57634;51.136;17.024;2022-08-19T11:25:13;38.10;26.90
70244;DHT22;57634;51.136;17.024;2022-08-19T11:28:14;38.00;26.90
70244;DHT22;57634;51.136;17.024;2022-08-19T11:31:21;38.00;26.90
70244;DHT22;57634;51.136;17.024;2022-08-19T11:34:25;38.00;27.00
70244;DHT22;57634;51.136;17.024;2022-08-19T11:37:29;38.00;27.10
70244;DHT22;57634;51.136;17.024;2022-08-19T11:40:31;38.00;26.90
70244;DHT22;57634;51.136;17.024;2022-08-19T11:43:34;37.80;27.00
70244;DHT22;57634;51.136;17.024;2022-08-19T11:46:37;37.60;27.20
70244;DHT22;57634;51.136;17.024;2022-08-19T11:49:39;37.40;27.30
70244;DHT22;57634;51.136;17.024;2022-08-19T11:53:09;37.30;27.40
70244;DHT22;57634;51.136;17.024;2022-08-19T11:56:11;37.20;27.90
70244;DHT22;57634;51.136;17.024;2022-08-19T11:59:12;37.20;28.10
70244;DHT22;57634;51.136;17.024;2022-08-19T12:02:13;37.30;26.90
70244;DHT22;57634;51.136;17.024;2022-08-19T12:05:16;37.20;26.40
70244;DHT22;57634;51.136;17.024;2022-08-19T12:08:19;37.00;26.40
70244;DHT22;57634;51.136;17.024;2022-08-19T12:11:21;36.90;26.50
70244;DHT22;57634;51.136;17.024;2022-08-19T12:14:23;36.80;26.50
70244;DHT22;57634;51.136;17.024;2022-08-19T12:17:26;36.70;26.50
70244;DHT22;57634;51.136;17.024;2022-08-19T12:20:28;36.60;26.60
70244;DHT22;57634;51.136;17.024;2022-08-19T12:23:30;36.50;26.80
70244;DHT22;57634;51.136;17.024;2022-08-19T12:26:31;36.50;27.10
70244;DHT22;57634;51.136;17.024;2022-08-19T12:29:33;36.40;27.30
70244;DHT22;57634;51.136;17.024;2022-08-19T12:32:35;36.40;28.00
70244;DHT22;57634;51.136;17.024;2022-08-19T12:35:43;36.40;28.40
70244;DHT22;57634;51.136;17.024;2022-08-19T12:39:12;36.40;28.30
70244;DHT22;57634;51.136;17.024;2022-08-19T12:42:14;36.30;28.50
70244;DHT22;57634;51.136;17.024;2022-08-19T12:45:16;36.30;28.40
70244;DHT22;57634;51.136;17.024;2022-08-19T12:48:18;36.30;28.50
70244;DHT22;57634;51.136;17.024;2022-08-19T12:51:20;36.20;28.40
70244;DHT22;57634;51.136;17.024;2022-08-19T12:54:22;36.10;28.40
70244;DHT22;57634;51.136;17.024;2022-08-19T12:57:26;36.10;28.20
70244;DHT22;57634;51.136;17.024;2022-08-19T13:00:28;36.00;28.30
70244;DHT22;57634;51.136;17.024;2022-08-19T13:03:33;36.00;28.50
70244;DHT22;57634;51.136;17.024;2022-08-19T13:06:35;36.00;28.60
70244;DHT22;57634;51.136;17.024;2022-08-19T13:09:37;36.10;28.90
70244;DHT22;57634;51.136;17.024;2022-08-19T13:13:09;36.00;28.80
70244;DHT22;57634;51.136;17.024;2022-08-19T13:16:12;36.00;28.90
70244;DHT22;57634;51.136;17.024;2022-08-19T13:19:14;35.90;28.90
70244;DHT22;57634;51.136;17.024;2022-08-19T13:22:16;35.90;29.10
70244;DHT22;57634;51.136;17.024;2022-08-19T13:25:19;35.90;29.20
70244;DHT22;57634;51.136;17.024;2022-08-19T13:28:21;35.90;29.00
70244;DHT22;57634;51.136;17.024;2022-08-19T13:31:24;35.90;28.90
70244;DHT22;57634;51.136;17.024;2022-08-19T13:34:38;35.90;28.70
70244;DHT22;57634;51.136;17.024;2022-08-19T13:37:40;35.90;28.90
70244;DHT22;57634;51.136;17.024;2022-08-19T13:41:11;35.80;29.10
70244;DHT22;57634;51.136;17.024;2022-08-19T13:44:14;35.70;28.50
70244;DHT22;57634;51.136;17.024;2022-08-19T13:47:16;35.70;28.70
70244;DHT22;57634;51.136;17.024;2022-08-19T13:50:22;35.60;29.00
70244;DHT22;57634;51.136;17.024;2022-08-19T13:53:26;35.60;29.10
70244;DHT22;57634;51.136;17.024;2022-08-19T13:56:27;35.70;28.90
70244;DHT22;57634;51.136;17.024;2022-08-19T13:59:28;35.60;28.50
70244;DHT22;57634;51.136;17.024;2022-08-19T14:02:29;35.60;28.60
70244;DHT22;57634;51.136;17.024;2022-08-19T14:05:32;35.50;28.50
70244;DHT22;57634;51.136;17.024;2022-08-19T14:08:33;35.50;28.40
70244;DHT22;57634;51.136;17.024;2022-08-19T14:11:35;35.50;28.60
70244;DHT22;57634;51.136;17.024;2022-08-19T14:14:39;35.50;28.60
70244;DHT22;57634;51.136;17.024;2022-08-19T14:18:06;35.50;28.80
70244;DHT22;57634;51.136;17.024;2022-08-19T14:21:18;35.40;29.20
70244;DHT22;57634;51.136;17.024;2022-08-19T14:24:20;35.50;29.70
70244;DHT22;57634;51.136;17.024;2022-08-19T14:27:22;35.50;30.00
70244;DHT22;57634;51.136;17.024;2022-08-19T14:30:31;35.40;30.10
70244;DHT22;57634;51.136;17.024;2022-08-19T14:33:32;35.40;30.40
70244;DHT22;57634;51.136;17.024;2022-08-19T14:36:34;35.30;30.70
70244;DHT22;57634;51.136;17.024;2022-08-19T14:39:35;35.10;31.10
70244;DHT22;57634;51.136;17.024;2022-08-19T14:42:37;35.00;31.40
70244;DHT22;57634;51.136;17.024;2022-08-19T14:45:39;34.90;31.60
70244;DHT22;57634;51.136;17.024;2022-08-19T14:49:07;34.90;31.90
70244;DHT22;57634;51.136;17.024;2022-08-19T14:52:08;34.80;32.20
70244;DHT22;57634;51.136;17.024;2022-08-19T14:55:09;34.80;32.40
70244;DHT22;57634;51.136;17.024;2022-08-19T14:58:11;34.70;32.70
70244;DHT22;57634;51.136;17.024;2022-08-19T15:01:13;34.60;32.90
70244;DHT22;57634;51.136;17.024;2022-08-19T15:04:15;34.60;33.00
70244;DHT22;57634;51.136;17.024;2022-08-19T15:07:17;34.40;33.30
70244;DHT22;57634;51.136;17.024;2022-08-19T15:10:18;34.30;33.90
70244;DHT22;57634;51.136;17.024;2022-08-19T15:13:20;34.20;34.60
70244;DHT22;57634;51.136;17.024;2022-08-19T15:16:23;33.90;35.30
70244;DHT22;57634;51.136;17.024;2022-08-19T15:19:26;33.70;36.00
70244;DHT22;57634;51.136;17.024;2022-08-19T15:22:28;33.50;36.40
70244;DHT22;57634;51.136;17.024;2022-08-19T15:25:29;33.30;37.10
70244;DHT22;57634;51.136;17.024;2022-08-19T15:29:01;33.00;37.60
70244;DHT22;57634;51.136;17.024;2022-08-19T15:32:03;32.90;38.60
70244;DHT22;57634;51.136;17.024;2022-08-19T15:35:07;32.80;39.00
70244;DHT22;57634;51.136;17.024;2022-08-19T15:38:09;32.60;39.20
70244;DHT22;57634;51.136;17.024;2022-08-19T15:41:22;32.40;39.50
70244;DHT22;57634;51.136;17.024;2022-08-19T15:44:24;32.20;39.90
70244;DHT22;57634;51.136;17.024;2022-08-19T15:47:28;31.90;40.30
70244;DHT22;57634;51.136;17.024;2022-08-19T15:50:30;31.70;40.70
70244;DHT22;57634;51.136;17.024;2022-08-19T15:53:32;31.50;41.20
70244;DHT22;57634;51.136;17.024;2022-08-19T15:57:02;31.30;41.70
70244;DHT22;57634;51.136;17.024;2022-08-19T16:00:16;31.10;42.80
70244;DHT22;57634;51.136;17.024;2022-08-19T16:03:30;31.00;43.00
70244;DHT22;57634;51.136;17.024;2022-08-19T16:06:50;30.90;43.10
70244;DHT22;57634;51.136;17.024;2022-08-19T16:10:19;30.90;43.10
70244;DHT22;57634;51.136;17.024;2022-08-19T16:13:20;30.90;43.60
70244;DHT22;57634;51.136;17.024;2022-08-19T16:16:31;30.90;43.80
70244;DHT22;57634;51.136;17.024;2022-08-19T16:19:33;30.80;44.00
70244;DHT22;57634;51.136;17.024;2022-08-19T16:22:35;30.80;44.00
70244;DHT22;57634;51.136;17.024;2022-08-19T16:25:36;30.80;44.10
70244;DHT22;57634;51.136;17.024;2022-08-19T16:28:40;30.80;44.10
70244;DHT22;57634;51.136;17.024;2022-08-19T16:34:17;30.80;44.30
70244;DHT22;57634;51.136;17.024;2022-08-19T16:37:18;30.80;44.40
70244;DHT22;57634;51.136;17.024;2022-08-19T16:40:22;30.90;44.40
70244;DHT22;57634;51.136;17.024;2022-08-19T16:43:26;30.90;44.40
70244;DHT22;57634;51.136;17.024;2022-08-19T16:46:30;31.00;44.40
70244;DHT22;57634;51.136;17.024;2022-08-19T16:49:32;31.00;44.30
70244;DHT22;57634;51.136;17.024;2022-08-19T16:52:34;31.00;44.30
70244;DHT22;57634;51.136;17.024;2022-08-19T16:55:36;31.10;44.30
70244;DHT22;57634;51.136;17.024;2022-08-19T16:58:38;31.00;44.40
70244;DHT22;57634;51.136;17.024;2022-08-19T17:01:40;31.00;44.50
70244;DHT22;57634;51.136;17.024;2022-08-19T17:04:44;30.90;44.60
70244;DHT22;57634;51.136;17.024;2022-08-19T17:08:13;30.90;44.80
70244;DHT22;57634;51.136;17.024;2022-08-19T17:11:19;30.80;44.90
70244;DHT22;57634;51.136;17.024;2022-08-19T17:14:21;30.80;45.30
70244;DHT22;57634;51.136;17.024;2022-08-19T17:17:23;30.70;45.20
70244;DHT22;57634;51.136;17.024;2022-08-19T17:20:25;30.60;45.40
70244;DHT22;57634;51.136;17.024;2022-08-19T17:23:27;30.50;45.60
70244;DHT22;57634;51.136;17.024;2022-08-19T17:26:30;30.40;45.70
70244;DHT22;57634;51.136;17.024;2022-08-19T17:29:32;30.40;46.10
70244;DHT22;57634;51.136;17.024;2022-08-19T17:32:33;30.30;46.30
70244;DHT22;57634;51.136;17.024;2022-08-19T17:35:36;30.20;46.50
70244;DHT22;57634;51.136;17.024;2022-08-19T17:39:10;30.10;46.60
70244;DHT22;57634;51.136;17.024;2022-08-19T17:42:11;30.10;47.00
70244;DHT22;57634;51.136;17.024;2022-08-19T17:45:13;30.10;47.40
70244;DHT22;57634;51.136;17.024;2022-08-19T17:48:15;30.00;47.50
70244;DHT22;57634;51.136;17.024;2022-08-19T17:51:24;30.00;47.70
70244;DHT22;57634;51.136;17.024;2022-08-19T17:54:27;29.90;47.70
70244;DHT22;57634;51.136;17.024;2022-08-19T17:57:29;29.90;47.80
70244;DHT22;57634;51.136;17.024;2022-08-19T18:00:32;29.90;47.90
70244;DHT22;57634;51.136;17.024;2022-08-19T18:03:34;29.80;47.90
70244;DHT22;57634;51.136;17.024;2022-08-19T18:06:35;29.80;48.00
70244;DHT22;57634;51.136;17.024;2022-08-19T18:09:39;29.70;48.10
70244;DHT22;57634;51.136;17.024;2022-08-19T18:13:06;29.60;48.20
70244;DHT22;57634;51.136;17.024;2022-08-19T18:16:10;29.50;48.60
70244;DHT22;57634;51.136;17.024;2022-08-19T18:19:13;29.50;48.80
70244;DHT22;57634;51.136;17.024;2022-08-19T18:22:22;29.40;49.00
70244;DHT22;57634;51.136;17.024;2022-08-19T18:25:25;29.40;49.20
70244;DHT22;57634;51.136;17.024;2022-08-19T18:28:27;29.30;49.30
70244;DHT22;57634;51.136;17.024;2022-08-19T18:31:28;29.20;49.40
70244;DHT22;57634;51.136;17.024;2022-08-19T18:34:30;29.20;49.60
70244;DHT22;57634;51.136;17.024;2022-08-19T18:37:32;29.10;49.50
70244;DHT22;57634;51.136;17.024;2022-08-19T18:40:33;29.20;49.60
70244;DHT22;57634;51.136;17.024;2022-08-19T18:44:12;29.10;49.60
70244;DHT22;57634;51.136;17.024;2022-08-19T18:47:26;29.10;50.00
70244;DHT22;57634;51.136;17.024;2022-08-19T18:50:39;29.10;50.10
70244;DHT22;57634;51.136;17.024;2022-08-19T18:53:46;29.10;50.20
70244;DHT22;57634;51.136;17.024;2022-08-19T18:56:48;29.00;50.20
70244;DHT22;57634;51.136;17.024;2022-08-19T18:59:55;29.00;50.30
70244;DHT22;57634;51.136;17.024;2022-08-19T19:03:27;28.90;50.40
70244;DHT22;57634;51.136;17.024;2022-08-19T19:06:33;28.90;50.90
70244;DHT22;57634;51.136;17.024;2022-08-19T19:09:40;28.90;51.40
70244;DHT22;57634;51.136;17.024;2022-08-19T19:12:42;28.90;51.50
70244;DHT22;57634;51.136;17.024;2022-08-19T19:15:48;28.80;51.40
70244;DHT22;57634;51.136;17.024;2022-08-19T19:18:50;28.70;51.40
70244;DHT22;57634;51.136;17.024;2022-08-19T19:21:53;28.70;51.50
70244;DHT22;57634;51.136;17.024;2022-08-19T19:24:54;28.70;51.50
70244;DHT22;57634;51.136;17.024;2022-08-19T19:27:59;28.60;51.40